createdAt,value
2023-01-26T00:00:16.874Z,72.70
2023-01-26T00:01:16.942Z,73.80
2023-01-26T00:02:16.927Z,73.30
2023-01-26T00:03:16.838Z,74.30
2023-01-26T00:04:16.952Z,74.90
2023-01-26T00:05:16.867Z,74.40
2023-01-26T00:06:16.873Z,77.30
2023-01-26T00:07:16.783Z,76.10
2023-01-26T00:08:16.957Z,74.50
2023-01-26T00:09:16.856Z,75.20
2023-01-26T00:10:16.775Z,75.40
2023-01-26T00:11:16.782Z,76.60
2023-01-26T00:12:16.780Z,77.40
2023-01-26T00:13:16.753Z,75.80
2023-01-26T00:14:16.738Z,76.70
2023-01-26T00:15:16.777Z,76.10
2023-01-26T00:16:16.828Z,76.90
2023-01-26T00:17:16.764Z,78.50
2023-01-26T00:18:16.708Z,77.30
2023-01-26T00:19:16.702Z,77.80
2023-01-26T00:20:16.708Z,78.50
2023-01-26T00:21:16.766Z,77.90
2023-01-26T00:22:16.735Z,79.20
2023-01-26T00:23:16.624Z,79.80
2023-01-26T00:24:16.773Z,80.40
2023-01-26T00:25:16.669Z,80.80
2023-01-26T00:26:16.736Z,79.30
2023-01-26T00:27:16.576Z,78.00
2023-01-26T00:28:16.759Z,77.50
2023-01-26T00:29:16.569Z,79.40
2023-01-26T00:30:16.648Z,79.70
2023-01-26T00:31:16.591Z,78.30
2023-01-26T00:32:16.621Z,82.30
2023-01-26T00:33:16.556Z,80.10
2023-01-26T00:34:16.580Z,83.80
2023-01-26T00:35:16.534Z,79.40
2023-01-26T00:36:16.502Z,81.10
2023-01-26T00:37:16.538Z,81.40
2023-01-26T00:38:16.542Z,84.10
2023-01-26T00:39:16.545Z,84.10
2023-01-26T00:40:16.483Z,83.90
2023-01-26T00:41:16.622Z,84.30
2023-01-26T00:42:16.485Z,82.60
2023-01-26T00:43:16.521Z,81.20
2023-01-26T00:44:16.523Z,83.50
2023-01-26T00:45:16.519Z,82.90
2023-01-26T00:46:16.426Z,82.00
2023-01-26T00:47:16.512Z,83.30
2023-01-26T00:48:16.464Z,82.50
2023-01-26T00:49:16.420Z,83.00
2023-01-26T00:50:16.445Z,83.20
2023-01-26T00:51:16.401Z,83.90
2023-01-26T00:52:16.422Z,84.10
2023-01-26T00:53:16.386Z,87.00
2023-01-26T00:54:16.311Z,86.40
2023-01-26T00:55:16.401Z,86.10
2023-01-26T00:56:16.369Z,86.90
2023-01-26T00:57:16.310Z,86.20
2023-01-26T00:58:16.387Z,86.00
2023-01-26T00:59:16.260Z,82.90
2023-01-26T01:00:16.329Z,86.90
2023-01-26T01:01:16.249Z,81.20
2023-01-26T01:02:16.349Z,85.50
2023-01-26T01:03:16.327Z,84.30
2023-01-26T01:04:16.338Z,82.90
2023-01-26T01:05:16.280Z,84.10
2023-01-26T01:06:16.289Z,82.90
2023-01-26T01:07:16.244Z,81.90
2023-01-26T01:08:16.295Z,84.40
2023-01-26T01:09:16.164Z,81.70
2023-01-26T01:10:16.213Z,84.70
2023-01-26T01:11:16.265Z,85.20
2023-01-26T01:12:16.296Z,85.00
2023-01-26T01:13:16.110Z,85.10
2023-01-26T01:14:16.204Z,85.20
2023-01-26T01:15:16.113Z,85.30
2023-01-26T01:16:16.237Z,83.40
2023-01-26T01:17:16.204Z,83.40
2023-01-26T01:18:16.100Z,83.20
2023-01-26T01:19:16.457Z,85.30
2023-01-26T01:20:16.085Z,85.60
2023-01-26T01:21:16.076Z,85.10
2023-01-26T01:22:16.139Z,84.40
2023-01-26T01:23:16.086Z,85.50
2023-01-26T01:24:16.122Z,84.10
2023-01-26T01:25:16.107Z,81.30
2023-01-26T01:26:16.009Z,82.40
2023-01-26T01:27:16.106Z,85.50
2023-01-26T01:28:16.056Z,83.70
2023-01-26T01:29:16.072Z,82.60
2023-01-26T01:30:16.011Z,83.50
2023-01-26T01:31:16.241Z,84.00
2023-01-26T01:32:16.025Z,83.10
2023-01-26T01:33:16.036Z,83.80
2023-01-26T01:34:15.979Z,82.60
2023-01-26T01:35:16.072Z,81.60
2023-01-26T01:36:15.965Z,82.60
2023-01-26T01:37:16.119Z,82.00
2023-01-26T01:38:15.898Z,84.00
2023-01-26T01:39:51.459Z,81.50
2023-01-26T01:40:51.473Z,83.20
2023-01-26T01:41:51.454Z,83.80
2023-01-26T01:42:51.501Z,83.10
2023-01-26T01:43:51.489Z,82.90
2023-01-26T01:44:51.438Z,82.90
2023-01-26T01:45:51.463Z,84.10
2023-01-26T01:46:51.520Z,82.10
2023-01-26T01:47:51.951Z,84.60
2023-01-26T01:48:51.414Z,85.70
2023-01-26T01:49:51.421Z,83.30
2023-01-26T01:50:51.445Z,81.20
2023-01-26T01:51:51.377Z,82.70
2023-01-26T01:52:51.428Z,83.30
2023-01-26T01:53:51.391Z,83.70
2023-01-26T01:54:51.360Z,82.90
2023-01-26T01:55:51.833Z,84.00
2023-01-26T01:56:51.435Z,83.30
2023-01-26T01:57:51.294Z,86.40
2023-01-26T01:58:51.300Z,85.50
2023-01-26T01:59:51.332Z,85.60
2023-01-26T02:00:51.422Z,85.70
2023-01-26T02:01:51.313Z,81.80
2023-01-26T02:02:51.253Z,81.50
2023-01-26T02:03:51.258Z,84.60
2023-01-26T02:04:51.465Z,83.30
2023-01-26T02:05:51.258Z,84.40
2023-01-26T02:06:51.253Z,83.80
2023-01-26T02:07:51.263Z,82.80
2023-01-26T02:08:51.352Z,81.10
2023-01-26T02:09:51.523Z,81.80
2023-01-26T02:10:51.167Z,81.10
2023-01-26T02:11:51.199Z,81.80
2023-01-26T02:12:51.511Z,82.60
2023-01-26T02:13:51.192Z,82.70
2023-01-26T02:14:51.152Z,80.20
2023-01-26T02:15:51.194Z,82.00
2023-01-26T02:16:51.980Z,82.90
2023-01-26T02:17:51.148Z,81.70
2023-01-26T02:18:51.149Z,81.40
2023-01-26T02:19:51.085Z,82.80
2023-01-26T02:20:52.005Z,83.10
2023-01-26T02:21:51.110Z,80.80
2023-01-26T02:22:51.107Z,81.90
2023-01-26T02:23:51.127Z,80.40
2023-01-26T02:24:51.041Z,80.80
2023-01-26T02:25:51.013Z,81.60
2023-01-26T02:26:51.035Z,81.30
2023-01-26T02:27:51.010Z,81.90
2023-01-26T02:28:51.058Z,82.10
2023-01-26T02:29:51.030Z,84.60
2023-01-26T02:30:51.018Z,80.50
2023-01-26T02:31:51.091Z,82.80
2023-01-26T02:32:51.012Z,80.50
2023-01-26T02:33:50.956Z,82.50
2023-01-26T02:34:51.049Z,81.60
2023-01-26T02:35:50.998Z,83.50
2023-01-26T02:36:50.937Z,82.80
2023-01-26T02:37:50.893Z,79.80
2023-01-26T02:38:50.918Z,80.90
2023-01-26T02:39:51.270Z,80.50
2023-01-26T02:40:50.872Z,81.00
2023-01-26T02:41:50.905Z,82.00
2023-01-26T02:42:50.884Z,83.40
2023-01-26T02:43:50.918Z,81.70
2023-01-26T02:44:50.881Z,80.70
2023-01-26T02:45:51.074Z,79.30
2023-01-26T02:46:50.924Z,83.50
2023-01-26T02:47:51.443Z,82.10
2023-01-26T02:48:51.486Z,85.10
2023-01-26T02:49:50.879Z,81.40
2023-01-26T02:50:50.831Z,82.30
2023-01-26T02:51:50.786Z,79.90
2023-01-26T02:52:50.786Z,80.20
2023-01-26T02:53:50.725Z,80.00
2023-01-26T02:54:50.794Z,79.90
2023-01-26T02:55:50.749Z,81.80
2023-01-26T02:56:50.793Z,80.30
2023-01-26T02:57:50.696Z,82.30
2023-01-26T02:58:50.762Z,78.60
2023-01-26T02:59:50.682Z,79.40
2023-01-26T03:00:50.727Z,81.90
2023-01-26T03:01:50.702Z,82.80
2023-01-26T03:02:50.684Z,81.20
2023-01-26T03:03:50.659Z,78.70
2023-01-26T03:04:50.676Z,78.50
2023-01-26T03:05:50.630Z,80.30
2023-01-26T03:06:50.659Z,81.50
2023-01-26T03:07:50.611Z,80.10
2023-01-26T03:08:50.634Z,78.10
2023-01-26T03:09:50.580Z,78.60
2023-01-26T03:10:50.571Z,79.90
2023-01-26T03:11:50.592Z,78.90
2023-01-26T03:12:50.593Z,79.60
2023-01-26T03:13:50.598Z,77.90
2023-01-26T03:14:50.551Z,78.90
2023-01-26T03:15:50.638Z,78.20
2023-01-26T03:16:50.568Z,78.80
2023-01-26T03:17:50.567Z,81.00
2023-01-26T03:18:50.717Z,80.80
2023-01-26T03:19:50.487Z,78.10
2023-01-26T03:20:50.516Z,75.80
2023-01-26T03:21:50.488Z,78.10
2023-01-26T03:22:50.514Z,79.50
2023-01-26T03:23:50.521Z,81.60
2023-01-26T03:24:50.496Z,80.30
2023-01-26T03:25:50.493Z,79.00
2023-01-26T03:26:50.425Z,81.40
2023-01-26T03:27:50.388Z,78.80
2023-01-26T03:28:50.400Z,77.00
2023-01-26T03:29:50.399Z,78.60
2023-01-26T03:30:50.420Z,76.10
2023-01-26T03:31:50.404Z,77.20
2023-01-26T03:32:50.353Z,77.80
2023-01-26T03:33:50.338Z,78.50
2023-01-26T03:34:50.399Z,80.20
2023-01-26T03:35:50.329Z,78.30
2023-01-26T03:36:50.333Z,80.20
2023-01-26T03:37:50.319Z,75.80
2023-01-26T03:38:50.307Z,79.50
2023-01-26T03:39:50.294Z,80.30
2023-01-26T03:40:50.313Z,77.40
2023-01-26T03:41:50.318Z,81.30
2023-01-26T03:42:50.311Z,79.70
2023-01-26T03:43:50.239Z,77.60
2023-01-26T03:44:50.303Z,78.80
2023-01-26T03:45:50.233Z,83.40
2023-01-26T03:46:50.249Z,76.60
2023-01-26T03:47:50.291Z,75.90
2023-01-26T03:48:50.235Z,76.10
2023-01-26T03:49:50.222Z,75.60
2023-01-26T03:50:50.179Z,74.40
2023-01-26T03:51:50.257Z,72.00
2023-01-26T03:52:50.153Z,77.60
2023-01-26T03:53:50.166Z,77.70
2023-01-26T03:54:50.201Z,74.00
2023-01-26T03:55:50.125Z,73.20
2023-01-26T03:56:50.110Z,76.70
2023-01-26T03:57:50.182Z,73.90
2023-01-26T03:58:50.097Z,74.50
2023-01-26T03:59:50.067Z,74.40
2023-01-26T04:00:50.145Z,73.40
2023-01-26T04:01:50.086Z,72.30
2023-01-26T04:02:50.070Z,73.30
2023-01-26T04:03:50.089Z,75.90
2023-01-26T04:04:50.079Z,73.90
2023-01-26T04:05:50.030Z,78.00
2023-01-26T04:06:50.034Z,73.90
2023-01-26T04:07:50.033Z,74.30
2023-01-26T04:08:50.010Z,72.70
2023-01-26T04:09:49.993Z,70.80
2023-01-26T04:10:50.014Z,73.10
2023-01-26T04:11:49.955Z,72.50
2023-01-26T04:12:49.981Z,71.20
2023-01-26T04:13:49.938Z,70.00
2023-01-26T04:14:50.822Z,69.60
2023-01-26T04:15:49.940Z,71.20
2023-01-26T04:16:49.923Z,67.80
2023-01-26T04:17:49.929Z,70.80
2023-01-26T04:18:49.967Z,69.10
2023-01-26T04:19:49.898Z,69.00
2023-01-26T04:20:49.938Z,68.80
2023-01-26T04:21:49.861Z,72.20
2023-01-26T04:22:49.845Z,69.90
2023-01-26T04:23:49.923Z,73.70
2023-01-26T04:24:49.886Z,71.90
2023-01-26T04:25:49.804Z,70.70
2023-01-26T04:26:49.813Z,71.50
2023-01-26T04:27:49.805Z,71.20
2023-01-26T04:28:49.819Z,70.20
2023-01-26T04:29:49.855Z,70.40
2023-01-26T04:30:50.057Z,72.20
2023-01-26T04:31:49.844Z,69.40
2023-01-26T04:32:49.753Z,71.30
2023-01-26T04:33:49.743Z,70.90
2023-01-26T04:34:49.790Z,67.70
2023-01-26T04:35:49.724Z,65.60
2023-01-26T04:36:49.710Z,66.90
2023-01-26T04:37:49.715Z,67.90
2023-01-26T04:38:49.688Z,69.10
2023-01-26T04:39:49.786Z,70.50
2023-01-26T04:40:49.714Z,70.20
2023-01-26T04:41:49.682Z,69.80
2023-01-26T04:42:49.696Z,71.20
2023-01-26T04:43:49.628Z,70.80
2023-01-26T04:44:49.633Z,70.60
2023-01-26T04:45:49.651Z,67.20
2023-01-26T04:46:49.647Z,67.80
2023-01-26T04:47:49.604Z,68.00
2023-01-26T04:48:49.608Z,69.10
2023-01-26T04:49:49.607Z,69.10
2023-01-26T04:50:49.575Z,67.70
2023-01-26T04:51:49.555Z,68.40
2023-01-26T04:52:49.568Z,69.60
2023-01-26T04:53:49.620Z,69.00
2023-01-26T04:54:49.553Z,71.50
2023-01-26T04:55:49.507Z,67.10
2023-01-26T04:56:49.937Z,69.60
2023-01-26T04:57:49.552Z,69.10
2023-01-26T04:58:49.522Z,70.00
2023-01-26T04:59:49.488Z,70.40
2023-01-26T05:00:49.513Z,66.20
2023-01-26T05:01:49.461Z,66.90
2023-01-26T05:02:49.448Z,66.40
2023-01-26T05:03:49.492Z,66.70
2023-01-26T05:04:49.475Z,67.60
2023-01-26T05:05:49.483Z,68.30
2023-01-26T05:06:49.435Z,67.90
2023-01-26T05:07:49.388Z,66.30
2023-01-26T05:08:49.429Z,67.60
2023-01-26T05:09:49.414Z,67.20
2023-01-26T05:10:49.421Z,66.60
2023-01-26T05:11:49.631Z,66.50
2023-01-26T05:12:49.376Z,63.30
2023-01-26T05:13:49.347Z,63.50
2023-01-26T05:14:49.396Z,64.00
2023-01-26T05:15:49.323Z,63.60
2023-01-26T05:16:49.465Z,63.80
2023-01-26T05:17:49.303Z,64.30
2023-01-26T05:18:49.296Z,60.40
2023-01-26T05:19:49.295Z,61.90
2023-01-26T05:20:49.324Z,62.30
2023-01-26T05:21:49.316Z,60.20
2023-01-26T05:22:49.251Z,59.70
2023-01-26T05:23:49.376Z,61.00
2023-01-26T05:24:49.220Z,60.00
2023-01-26T05:25:49.231Z,60.00
2023-01-26T05:26:49.241Z,59.50
2023-01-26T05:27:49.227Z,58.00
2023-01-26T05:28:49.219Z,57.60
2023-01-26T05:29:49.178Z,56.60
2023-01-26T05:30:49.209Z,55.30
2023-01-26T05:31:49.209Z,55.50
2023-01-26T05:32:49.170Z,53.50
2023-01-26T05:33:49.151Z,54.40
2023-01-26T05:34:49.169Z,54.60
2023-01-26T05:35:49.145Z,57.40
2023-01-26T05:36:49.108Z,56.70
2023-01-26T05:37:49.115Z,54.00
2023-01-26T05:38:49.092Z,54.40
2023-01-26T05:39:49.090Z,57.10
2023-01-26T05:40:49.082Z,53.60
2023-01-26T05:41:49.106Z,55.60
2023-01-26T05:42:49.099Z,54.20
2023-01-26T05:43:49.068Z,54.10
2023-01-26T05:44:49.045Z,54.10
2023-01-26T05:45:49.116Z,52.20
2023-01-26T05:46:49.038Z,53.40
2023-01-26T05:47:49.055Z,53.80
2023-01-26T05:48:49.009Z,52.10
2023-01-26T05:49:49.482Z,52.80
2023-01-26T05:50:48.982Z,53.40
2023-01-26T05:51:48.966Z,51.70
2023-01-26T05:52:48.961Z,52.00
2023-01-26T05:53:48.958Z,51.10
2023-01-26T05:54:49.015Z,50.20
2023-01-26T05:55:48.937Z,50.20
2023-01-26T05:56:48.918Z,50.70
2023-01-26T05:57:48.949Z,48.30
2023-01-26T05:58:48.879Z,48.70
2023-01-26T05:59:48.953Z,49.20
2023-01-26T06:00:48.863Z,49.50
2023-01-26T06:01:48.921Z,49.60
2023-01-26T06:02:48.873Z,49.80
2023-01-26T06:03:48.861Z,50.00
2023-01-26T06:04:48.861Z,49.10
2023-01-26T06:05:48.873Z,49.40
2023-01-26T06:06:48.848Z,47.70
2023-01-26T06:07:48.811Z,48.90
2023-01-26T06:08:48.809Z,48.70
2023-01-26T06:09:48.788Z,48.90
2023-01-26T06:10:48.758Z,48.30
2023-01-26T06:11:50.524Z,49.70
2023-01-26T06:12:48.787Z,46.60
2023-01-26T06:13:48.752Z,48.00
2023-01-26T06:14:48.740Z,47.70
2023-01-26T06:15:49.483Z,47.10
2023-01-26T06:16:48.904Z,48.30
2023-01-26T06:17:48.721Z,48.00
2023-01-26T06:18:48.695Z,48.00
2023-01-26T06:19:48.727Z,47.20
2023-01-26T06:20:48.694Z,48.40
2023-01-26T06:21:48.669Z,47.20
2023-01-26T06:22:48.672Z,46.70
2023-01-26T06:23:48.782Z,47.00
2023-01-26T06:24:48.708Z,47.40
2023-01-26T06:25:48.655Z,47.30
2023-01-26T06:26:48.675Z,46.00
2023-01-26T06:27:48.640Z,46.40
2023-01-26T06:28:48.662Z,46.80
2023-01-26T06:29:48.653Z,48.00
2023-01-26T06:30:48.687Z,47.60
2023-01-26T06:31:48.674Z,49.60
2023-01-26T06:32:48.569Z,46.80
2023-01-26T06:33:48.592Z,46.60
2023-01-26T06:34:48.515Z,48.20
2023-01-26T06:35:48.551Z,48.20
2023-01-26T06:36:48.582Z,47.80
2023-01-26T06:37:48.532Z,48.90
2023-01-26T06:38:48.494Z,46.10
2023-01-26T06:39:48.487Z,47.20
2023-01-26T06:40:48.521Z,47.90
2023-01-26T06:41:48.448Z,47.10
2023-01-26T06:42:48.438Z,47.50
2023-01-26T06:43:48.461Z,46.60
2023-01-26T06:44:48.411Z,47.50
2023-01-26T06:45:48.477Z,45.30
2023-01-26T06:46:48.396Z,47.60
2023-01-26T06:47:48.401Z,47.90
2023-01-26T06:48:48.402Z,48.90
2023-01-26T06:49:48.453Z,47.00
2023-01-26T06:50:48.367Z,46.80
2023-01-26T06:51:48.391Z,47.50
2023-01-26T06:52:48.318Z,46.90
2023-01-26T06:53:48.338Z,46.00
2023-01-26T06:54:48.251Z,47.20
2023-01-26T06:55:48.315Z,47.00
2023-01-26T06:56:48.408Z,46.80
2023-01-26T06:57:48.258Z,46.80
2023-01-26T06:58:48.219Z,45.80
2023-01-26T06:59:48.291Z,46.70
2023-01-26T07:00:48.245Z,46.90
2023-01-26T07:01:48.193Z,45.30
2023-01-26T07:02:48.207Z,45.60
2023-01-26T07:03:48.209Z,44.90
2023-01-26T07:04:48.210Z,46.90
2023-01-26T07:05:48.194Z,46.50
2023-01-26T07:06:48.161Z,47.80
2023-01-26T07:07:48.188Z,47.80
2023-01-26T07:08:48.124Z,46.80
2023-01-26T07:09:48.121Z,46.60
2023-01-26T07:10:48.145Z,45.80
2023-01-26T07:11:48.133Z,46.40
2023-01-26T07:12:48.089Z,47.80
2023-01-26T07:13:48.103Z,48.20
2023-01-26T07:14:48.056Z,47.70
2023-01-26T07:15:48.096Z,48.40
2023-01-26T07:16:48.126Z,47.80
2023-01-26T07:17:48.061Z,50.50
2023-01-26T07:18:48.054Z,49.70
2023-01-26T07:19:48.012Z,48.30
2023-01-26T07:20:48.009Z,46.10
2023-01-26T07:21:48.039Z,46.10
2023-01-26T07:22:48.001Z,47.30
2023-01-26T07:23:48.084Z,47.20
2023-01-26T07:24:47.963Z,45.60
2023-01-26T07:25:47.975Z,46.00
2023-01-26T07:26:47.950Z,48.40
2023-01-26T07:27:47.987Z,47.10
2023-01-26T07:28:47.931Z,45.90
2023-01-26T07:29:47.936Z,47.70
2023-01-26T07:30:47.942Z,48.00
2023-01-26T07:31:47.944Z,47.90
2023-01-26T07:32:47.905Z,46.60
2023-01-26T07:33:47.885Z,46.50
2023-01-26T07:34:47.861Z,54.40
2023-01-26T07:35:47.912Z,54.90
2023-01-26T07:36:47.856Z,59.30
2023-01-26T07:37:47.844Z,54.70
2023-01-26T07:38:47.817Z,53.60
2023-01-26T07:39:47.833Z,52.40
2023-01-26T07:40:47.820Z,46.50
2023-01-26T07:41:47.808Z,47.30
2023-01-26T07:42:47.806Z,50.10
2023-01-26T07:43:47.856Z,48.80
2023-01-26T07:44:47.804Z,47.10
2023-01-26T07:45:47.830Z,45.30
2023-01-26T07:46:47.848Z,43.50
2023-01-26T07:47:47.746Z,45.60
2023-01-26T07:48:47.745Z,45.30
2023-01-26T07:49:47.735Z,46.10
2023-01-26T07:50:47.721Z,45.70
2023-01-26T07:51:47.689Z,43.50
2023-01-26T07:52:47.707Z,44.50
2023-01-26T07:53:47.721Z,44.30
2023-01-26T07:54:47.691Z,44.50
2023-01-26T07:55:47.669Z,43.60
2023-01-26T07:56:47.674Z,43.50
2023-01-26T07:57:47.675Z,44.00
2023-01-26T07:58:47.648Z,42.10
2023-01-26T07:59:47.615Z,43.20
2023-01-26T08:00:47.585Z,42.80
2023-01-26T08:01:47.656Z,43.30
2023-01-26T08:02:47.725Z,45.50
2023-01-26T08:03:47.587Z,43.50
2023-01-26T08:04:47.593Z,43.40
2023-01-26T08:05:47.573Z,44.70
2023-01-26T08:06:47.551Z,44.50
2023-01-26T08:07:47.555Z,43.10
2023-01-26T08:08:47.559Z,43.10
2023-01-26T08:09:47.521Z,43.40
2023-01-26T08:10:47.514Z,44.30
2023-01-26T08:11:47.550Z,42.10
2023-01-26T08:12:47.473Z,42.40
2023-01-26T08:13:47.516Z,41.50
2023-01-26T08:14:47.514Z,42.90
2023-01-26T08:15:47.515Z,43.30
2023-01-26T08:16:47.466Z,40.90
2023-01-26T08:17:47.444Z,42.80
2023-01-26T08:18:47.429Z,42.10
2023-01-26T08:19:47.449Z,41.50
2023-01-26T08:20:47.412Z,41.20
2023-01-26T08:21:47.381Z,41.20
2023-01-26T08:22:47.389Z,42.40
2023-01-26T08:23:47.395Z,41.60
2023-01-26T08:24:47.368Z,41.60
2023-01-26T08:25:47.559Z,41.00
2023-01-26T08:26:47.894Z,42.70
2023-01-26T08:27:47.337Z,40.40
2023-01-26T08:28:47.341Z,41.30
2023-01-26T08:29:47.326Z,41.90
2023-01-26T08:30:47.356Z,43.20
2023-01-26T08:31:47.357Z,44.30
2023-01-26T08:32:47.304Z,45.20
2023-01-26T08:33:47.292Z,48.30
2023-01-26T08:34:47.268Z,44.40
2023-01-26T08:35:47.263Z,39.70
2023-01-26T08:36:47.237Z,39.20
2023-01-26T08:37:47.271Z,37.50
2023-01-26T08:38:47.219Z,38.60
2023-01-26T08:39:47.201Z,37.60
2023-01-26T08:40:47.193Z,35.90
2023-01-26T08:41:47.224Z,36.90
2023-01-26T08:42:47.161Z,34.70
2023-01-26T08:43:47.187Z,45.30
2023-01-26T08:44:47.178Z,40.70
2023-01-26T08:45:47.211Z,34.60
2023-01-26T08:46:47.126Z,33.40
2023-01-26T08:47:47.120Z,32.70
2023-01-26T08:48:47.140Z,33.10
2023-01-26T08:49:47.126Z,32.70
2023-01-26T08:50:47.104Z,35.40
2023-01-26T08:51:47.142Z,34.70
2023-01-26T08:52:47.074Z,31.60
2023-01-26T08:53:47.088Z,32.00
2023-01-26T08:54:47.105Z,31.30
2023-01-26T08:55:47.104Z,32.60
2023-01-26T08:56:47.033Z,30.70
2023-01-26T08:57:47.340Z,31.40
2023-01-26T08:58:47.050Z,31.30
2023-01-26T08:59:47.069Z,30.90
2023-01-26T09:00:47.060Z,31.30
2023-01-26T09:01:48.038Z,31.80
2023-01-26T09:02:47.111Z,30.90
2023-01-26T09:03:46.999Z,31.60
2023-01-26T09:04:46.978Z,31.50
2023-01-26T09:05:46.967Z,29.50
2023-01-26T09:06:46.943Z,28.60
2023-01-26T09:07:47.017Z,29.20
2023-01-26T09:08:46.917Z,29.10
2023-01-26T09:09:47.034Z,29.00
2023-01-26T09:10:47.063Z,28.60
2023-01-26T09:11:46.885Z,28.20
2023-01-26T09:12:46.928Z,29.60
2023-01-26T09:13:46.891Z,28.50
2023-01-26T09:14:46.867Z,27.90
2023-01-26T09:15:46.876Z,27.10
2023-01-26T09:16:46.867Z,27.20
2023-01-26T09:17:46.847Z,28.30
2023-01-26T09:18:46.843Z,27.70
2023-01-26T09:19:46.988Z,27.10
2023-01-26T09:20:46.788Z,28.70
2023-01-26T09:21:46.807Z,27.40
2023-01-26T09:22:46.784Z,27.20
2023-01-26T09:23:46.797Z,26.60
2023-01-26T09:24:46.769Z,27.50
2023-01-26T09:25:46.738Z,25.90
2023-01-26T09:26:46.736Z,26.30
2023-01-26T09:27:46.750Z,26.20
2023-01-26T09:28:46.704Z,26.20
2023-01-26T09:29:46.722Z,25.60
2023-01-26T09:30:46.863Z,25.60
2023-01-26T09:31:46.969Z,25.80
2023-01-26T09:32:46.677Z,25.90
2023-01-26T09:33:46.720Z,24.70
2023-01-26T09:34:46.687Z,24.90
2023-01-26T09:35:46.648Z,23.70
2023-01-26T09:36:46.646Z,24.70
2023-01-26T09:37:46.646Z,25.90
2023-01-26T09:38:46.607Z,24.70
2023-01-26T09:39:46.619Z,27.70
2023-01-26T09:40:46.605Z,27.40
2023-01-26T09:41:46.617Z,24.90
2023-01-26T09:42:46.582Z,25.00
2023-01-26T09:43:46.603Z,24.90
2023-01-26T09:44:46.552Z,25.10
2023-01-26T09:45:46.536Z,24.50
2023-01-26T09:46:46.576Z,25.30
2023-01-26T09:47:46.570Z,23.90
2023-01-26T09:48:46.511Z,23.70
2023-01-26T09:49:46.506Z,24.00
2023-01-26T09:50:46.516Z,24.00
2023-01-26T09:51:46.517Z,24.70
2023-01-26T09:52:46.557Z,24.20
2023-01-26T09:53:46.473Z,23.50
2023-01-26T09:54:46.527Z,23.20
2023-01-26T09:55:46.465Z,24.60
2023-01-26T09:56:46.427Z,22.70
2023-01-26T09:57:46.414Z,22.20
2023-01-26T09:58:46.421Z,23.10
2023-01-26T09:59:46.397Z,22.80
2023-01-26T10:00:46.428Z,22.90
2023-01-26T10:01:46.449Z,21.40
2023-01-26T10:02:46.415Z,21.50
2023-01-26T10:03:46.349Z,21.90
2023-01-26T10:04:46.379Z,21.80
2023-01-26T10:05:46.334Z,20.70
2023-01-26T10:06:46.375Z,21.50
2023-01-26T10:07:46.313Z,20.80
2023-01-26T10:08:46.340Z,20.20
2023-01-26T10:09:46.307Z,18.60
2023-01-26T10:10:46.316Z,18.60
2023-01-26T10:11:46.290Z,19.50
2023-01-26T10:12:46.267Z,19.60
2023-01-26T10:13:46.243Z,20.80
2023-01-26T10:14:46.266Z,20.00
2023-01-26T10:15:46.338Z,18.90
2023-01-26T10:16:46.262Z,18.80
2023-01-26T10:17:46.225Z,18.20
2023-01-26T10:18:46.231Z,19.40
2023-01-26T10:19:46.201Z,19.40
2023-01-26T10:20:46.267Z,18.60
2023-01-26T10:21:46.227Z,19.00
2023-01-26T10:22:46.174Z,18.10
2023-01-26T10:23:46.161Z,18.90
2023-01-26T10:24:46.175Z,17.90
2023-01-26T10:25:46.175Z,18.20
2023-01-26T10:26:46.161Z,17.90
2023-01-26T10:27:46.158Z,18.90
2023-01-26T10:28:46.110Z,18.10
2023-01-26T10:29:46.121Z,18.30
2023-01-26T10:30:46.211Z,18.60
2023-01-26T10:31:46.169Z,18.70
2023-01-26T10:32:46.086Z,17.70
2023-01-26T10:33:46.047Z,17.90
2023-01-26T10:34:46.050Z,16.60
2023-01-26T10:35:46.043Z,17.00
2023-01-26T10:36:46.047Z,16.80
2023-01-26T10:37:46.017Z,17.40
2023-01-26T10:38:46.035Z,17.30
2023-01-26T10:39:46.003Z,18.00
2023-01-26T10:40:46.019Z,16.60
2023-01-26T10:41:45.967Z,18.90
2023-01-26T10:42:45.981Z,17.40
2023-01-26T10:43:45.940Z,16.40
2023-01-26T10:44:45.971Z,17.70
2023-01-26T10:45:45.920Z,18.10
2023-01-26T10:46:46.027Z,19.20
2023-01-26T10:47:45.932Z,17.10
2023-01-26T10:48:45.955Z,19.10
2023-01-26T10:49:45.932Z,17.90
2023-01-26T10:50:45.953Z,16.70
2023-01-26T10:51:45.881Z,17.50
2023-01-26T10:52:45.879Z,17.30
2023-01-26T10:53:45.853Z,18.00
2023-01-26T10:54:45.861Z,18.10
2023-01-26T10:55:45.825Z,18.00
2023-01-26T10:56:45.819Z,17.60
2023-01-26T10:57:45.838Z,16.10
2023-01-26T10:58:45.842Z,16.30
2023-01-26T10:59:45.806Z,16.90
2023-01-26T11:00:45.772Z,15.90
2023-01-26T11:01:45.837Z,15.90
2023-01-26T11:02:45.779Z,16.30
2023-01-26T11:03:45.739Z,16.20
2023-01-26T11:04:45.754Z,15.20
2023-01-26T11:05:45.730Z,15.30
2023-01-26T11:06:45.733Z,16.50
2023-01-26T11:07:45.752Z,15.60
2023-01-26T11:08:45.771Z,15.80
2023-01-26T11:09:45.707Z,15.30
2023-01-26T11:10:45.727Z,15.10
2023-01-26T11:11:45.693Z,14.70
2023-01-26T11:12:45.691Z,15.30
2023-01-26T11:13:45.670Z,15.20
2023-01-26T11:14:45.662Z,14.40
2023-01-26T11:15:45.609Z,14.40
2023-01-26T11:16:45.638Z,15.00
2023-01-26T11:17:45.604Z,15.40
2023-01-26T11:18:45.613Z,15.20
2023-01-26T11:19:45.585Z,14.30
2023-01-26T11:20:45.604Z,14.80
2023-01-26T11:21:45.568Z,13.80
2023-01-26T11:22:45.620Z,14.10
2023-01-26T11:23:45.569Z,14.50
2023-01-26T11:24:45.601Z,13.80
2023-01-26T11:25:45.523Z,12.40
2023-01-26T11:26:45.507Z,12.70
2023-01-26T11:27:45.544Z,13.40
2023-01-26T11:28:45.524Z,14.10
2023-01-26T11:29:45.521Z,14.60
2023-01-26T11:30:45.526Z,14.50
2023-01-26T11:31:45.475Z,13.50
2023-01-26T11:32:45.468Z,13.40
2023-01-26T11:33:45.425Z,12.80
2023-01-26T11:34:45.448Z,14.80
2023-01-26T11:35:45.433Z,14.20
2023-01-26T11:36:45.425Z,13.60
2023-01-26T11:37:45.395Z,13.60
2023-01-26T11:38:45.398Z,13.30
2023-01-26T11:39:45.443Z,13.20
2023-01-26T11:40:45.370Z,13.40
2023-01-26T11:41:45.381Z,14.80
2023-01-26T11:42:45.391Z,14.70
2023-01-26T11:43:45.326Z,14.20
2023-01-26T11:44:45.337Z,13.40
2023-01-26T11:45:45.352Z,13.50
2023-01-26T11:46:45.368Z,12.80
2023-01-26T11:47:45.291Z,13.10
2023-01-26T11:48:45.300Z,13.80
2023-01-26T11:49:45.300Z,12.90
2023-01-26T11:50:45.284Z,13.20
2023-01-26T11:51:45.298Z,12.90
2023-01-26T11:52:45.250Z,13.40
2023-01-26T11:53:45.252Z,12.50
2023-01-26T11:54:45.247Z,12.40
2023-01-26T11:55:45.231Z,12.50
2023-01-26T11:56:45.203Z,12.90
2023-01-26T11:57:45.189Z,12.50
2023-01-26T11:58:45.214Z,12.10
2023-01-26T11:59:45.211Z,12.70
2023-01-26T12:00:45.209Z,12.60
2023-01-26T12:01:45.142Z,13.20
2023-01-26T12:02:45.184Z,13.00
2023-01-26T12:03:45.236Z,12.70
2023-01-26T12:04:45.157Z,13.20
2023-01-26T12:05:45.114Z,14.20
2023-01-26T12:06:45.111Z,14.90
2023-01-26T12:07:45.094Z,14.50
2023-01-26T12:08:45.176Z,14.70
2023-01-26T12:09:45.081Z,14.10
2023-01-26T12:10:45.075Z,13.50
2023-01-26T12:11:45.103Z,13.40
2023-01-26T12:12:45.035Z,12.90
2023-01-26T12:13:45.047Z,14.30
2023-01-26T12:14:45.071Z,14.50
2023-01-26T12:15:45.007Z,13.40
2023-01-26T12:16:45.035Z,12.90
2023-01-26T12:17:45.018Z,14.60
2023-01-26T12:18:55.710Z,13.00
2023-01-26T12:19:44.972Z,14.80
2023-01-26T12:20:44.964Z,13.90
2023-01-26T12:21:45.008Z,16.20
2023-01-26T12:22:44.972Z,16.90
2023-01-26T12:23:44.940Z,16.60
2023-01-26T12:25:16.127Z,15.30
2023-01-26T12:25:44.950Z,15.40
2023-01-26T12:26:44.927Z,16.00
2023-01-26T12:27:44.935Z,16.10
2023-01-26T12:28:44.922Z,15.30
2023-01-26T12:29:44.874Z,15.20
2023-01-26T12:30:44.968Z,13.80
2023-01-26T12:31:44.917Z,13.30
2023-01-26T12:32:44.837Z,12.70
2023-01-26T12:33:44.848Z,13.30
2023-01-26T12:34:44.843Z,12.50
2023-01-26T12:35:44.815Z,13.60
2023-01-26T12:36:44.826Z,12.90
2023-01-26T12:37:44.826Z,13.20
2023-01-26T12:38:44.790Z,13.40
2023-01-26T12:39:44.777Z,14.50
2023-01-26T12:40:44.762Z,14.50
2023-01-26T12:41:44.751Z,14.40
2023-01-26T12:42:44.730Z,14.20
2023-01-26T12:43:44.726Z,13.80
2023-01-26T12:44:44.758Z,13.30
2023-01-26T12:45:44.702Z,14.60
2023-01-26T12:46:44.692Z,15.40
2023-01-26T12:47:44.676Z,14.20
2023-01-26T12:48:44.692Z,15.80
2023-01-26T12:49:44.708Z,17.00
2023-01-26T12:50:44.671Z,16.70
2023-01-26T12:51:44.682Z,16.20
2023-01-26T12:52:44.636Z,16.60